sensor_id;sensor_type;location;lat;lon;timestamp;temperature;humidity
22008;DHT22;11168;56.976;24.168;2023-06-22T00:01:46;22.50;99.90
22008;DHT22;11168;56.976;24.168;2023-06-22T00:04:14;22.50;99.90
22008;DHT22;11168;56.976;24.168;2023-06-22T00:06:41;22.50;99.90
22008;DHT22;11168;56.976;24.168;2023-06-22T00:09:08;22.50;99.90
22008;DHT22;11168;56.976;24.168;2023-06-22T00:11:37;22.40;99.90
22008;DHT22;11168;56.976;24.168;2023-06-22T00:14:05;22.40;99.90
22008;DHT22;11168;56.976;24.168;2023-06-22T00:16:32;22.40;99.90
22008;DHT22;11168;56.976;24.168;2023-06-22T00:19:00;22.40;99.90
22008;DHT22;11168;56.976;24.168;2023-06-22T00:21:29;22.30;99.90
22008;DHT22;11168;56.976;24.168;2023-06-22T00:23:57;22.40;99.90
22008;DHT22;11168;56.976;24.168;2023-06-22T00:26:24;22.30;99.90
22008;DHT22;11168;56.976;24.168;2023-06-22T00:28:51;22.30;99.90
22008;DHT22;11168;56.976;24.168;2023-06-22T00:31:18;22.30;99.90
22008;DHT22;11168;56.976;24.168;2023-06-22T00:33:45;22.30;99.90
22008;DHT22;11168;56.976;24.168;2023-06-22T00:36:13;22.30;99.90
22008;DHT22;11168;56.976;24.168;2023-06-22T00:38:44;22.30;99.90
22008;DHT22;11168;56.976;24.168;2023-06-22T00:41:11;22.30;99.90
22008;DHT22;11168;56.976;24.168;2023-06-22T00:43:38;22.30;99.90
22008;DHT22;11168;56.976;24.168;2023-06-22T00:46:05;22.30;99.90
22008;DHT22;11168;56.976;24.168;2023-06-22T00:48:32;22.30;99.90
22008;DHT22;11168;56.976;24.168;2023-06-22T00:51:00;22.30;99.90
22008;DHT22;11168;56.976;24.168;2023-06-22T00:53:27;22.20;99.90
22008;DHT22;11168;56.976;24.168;2023-06-22T00:55:55;22.30;99.90
22008;DHT22;11168;56.976;24.168;2023-06-22T00:58:22;22.20;99.90
22008;DHT22;11168;56.976;24.168;2023-06-22T01:00:51;22.20;99.90
22008;DHT22;11168;56.976;24.168;2023-06-22T01:03:18;22.20;99.90
22008;DHT22;11168;56.976;24.168;2023-06-22T01:05:48;22.20;99.90
22008;DHT22;11168;56.976;24.168;2023-06-22T01:11:20;22.20;99.90
22008;DHT22;11168;56.976;24.168;2023-06-22T01:16:29;22.20;99.90
22008;DHT22;11168;56.976;24.168;2023-06-22T01:19:00;22.20;99.90
22008;DHT22;11168;56.976;24.168;2023-06-22T01:21:30;22.20;99.90
22008;DHT22;11168;56.976;24.168;2023-06-22T01:24:18;22.20;99.90
22008;DHT22;11168;56.976;24.168;2023-06-22T01:29:56;22.20;99.90
22008;DHT22;11168;56.976;24.168;2023-06-22T01:32:33;22.30;99.90
22008;DHT22;11168;56.976;24.168;2023-06-22T01:35:03;22.30;99.90
22008;DHT22;11168;56.976;24.168;2023-06-22T01:37:32;22.30;99.90
22008;DHT22;11168;56.976;24.168;2023-06-22T01:40:01;22.30;99.90
22008;DHT22;11168;56.976;24.168;2023-06-22T01:42:28;22.30;99.90
22008;DHT22;11168;56.976;24.168;2023-06-22T01:44:56;22.30;99.90
22008;DHT22;11168;56.976;24.168;2023-06-22T01:47:24;22.30;99.90
22008;DHT22;11168;56.976;24.168;2023-06-22T01:49:52;22.40;99.90
22008;DHT22;11168;56.976;24.168;2023-06-22T01:52:20;22.40;99.90
22008;DHT22;11168;56.976;24.168;2023-06-22T01:54:50;22.40;99.90
22008;DHT22;11168;56.976;24.168;2023-06-22T01:57:17;22.40;99.90
22008;DHT22;11168;56.976;24.168;2023-06-22T02:02:12;22.30;99.90
22008;DHT22;11168;56.976;24.168;2023-06-22T02:04:51;22.30;99.90
22008;DHT22;11168;56.976;24.168;2023-06-22T02:07:21;22.30;99.90
22008;DHT22;11168;56.976;24.168;2023-06-22T02:09:51;22.30;99.90
22008;DHT22;11168;56.976;24.168;2023-06-22T02:12:22;22.20;99.90
22008;DHT22;11168;56.976;24.168;2023-06-22T02:14:51;22.20;99.90
22008;DHT22;11168;56.976;24.168;2023-06-22T02:17:19;22.20;99.90
22008;DHT22;11168;56.976;24.168;2023-06-22T02:19:46;22.20;99.90
22008;DHT22;11168;56.976;24.168;2023-06-22T02:22:13;22.10;99.90
22008;DHT22;11168;56.976;24.168;2023-06-22T02:24:40;22.10;99.90
22008;DHT22;11168;56.976;24.168;2023-06-22T02:27:07;22.10;99.90
22008;DHT22;11168;56.976;24.168;2023-06-22T02:29:34;22.00;99.90
22008;DHT22;11168;56.976;24.168;2023-06-22T02:32:01;22.00;99.90
22008;DHT22;11168;56.976;24.168;2023-06-22T02:34:28;21.90;99.90
22008;DHT22;11168;56.976;24.168;2023-06-22T02:36:55;22.00;99.90
22008;DHT22;11168;56.976;24.168;2023-06-22T02:39:24;22.00;99.90
22008;DHT22;11168;56.976;24.168;2023-06-22T02:41:52;21.90;99.90
22008;DHT22;11168;56.976;24.168;2023-06-22T02:44:20;22.00;99.90
22008;DHT22;11168;56.976;24.168;2023-06-22T02:46:47;22.00;99.90
22008;DHT22;11168;56.976;24.168;2023-06-22T02:49:15;22.00;99.90
22008;DHT22;11168;56.976;24.168;2023-06-22T02:51:46;21.90;99.90
22008;DHT22;11168;56.976;24.168;2023-06-22T02:54:13;21.90;99.90
22008;DHT22;11168;56.976;24.168;2023-06-22T02:56:40;21.90;99.90
22008;DHT22;11168;56.976;24.168;2023-06-22T02:59:07;21.90;99.90
22008;DHT22;11168;56.976;24.168;2023-06-22T03:01:34;21.90;99.90
22008;DHT22;11168;56.976;24.168;2023-06-22T03:04:08;21.80;99.90
22008;DHT22;11168;56.976;24.168;2023-06-22T03:06:35;21.80;99.90
22008;DHT22;11168;56.976;24.168;2023-06-22T03:09:04;21.70;99.90
22008;DHT22;11168;56.976;24.168;2023-06-22T03:11:32;21.80;99.90
22008;DHT22;11168;56.976;24.168;2023-06-22T03:14:02;21.70;99.90
22008;DHT22;11168;56.976;24.168;2023-06-22T03:16:29;21.60;99.90
22008;DHT22;11168;56.976;24.168;2023-06-22T03:18:56;21.50;99.90
22008;DHT22;11168;56.976;24.168;2023-06-22T03:21:28;21.40;99.90
22008;DHT22;11168;56.976;24.168;2023-06-22T03:23:55;21.40;99.90
22008;DHT22;11168;56.976;24.168;2023-06-22T03:26:22;21.40;99.90
22008;DHT22;11168;56.976;24.168;2023-06-22T03:28:50;21.40;99.90
22008;DHT22;11168;56.976;24.168;2023-06-22T03:31:17;21.40;99.90
22008;DHT22;11168;56.976;24.168;2023-06-22T03:33:48;21.40;99.90
22008;DHT22;11168;56.976;24.168;2023-06-22T03:36:17;21.50;99.90
22008;DHT22;11168;56.976;24.168;2023-06-22T03:38:47;21.50;99.90
22008;DHT22;11168;56.976;24.168;2023-06-22T03:41:15;21.40;99.90
22008;DHT22;11168;56.976;24.168;2023-06-22T03:43:42;21.40;99.90
22008;DHT22;11168;56.976;24.168;2023-06-22T03:46:09;21.30;99.90
22008;DHT22;11168;56.976;24.168;2023-06-22T03:48:37;21.30;99.90
22008;DHT22;11168;56.976;24.168;2023-06-22T03:51:05;21.20;99.90
22008;DHT22;11168;56.976;24.168;2023-06-22T03:53:32;21.20;99.90
22008;DHT22;11168;56.976;24.168;2023-06-22T03:55:59;21.20;99.90
22008;DHT22;11168;56.976;24.168;2023-06-22T03:58:26;21.20;99.90
22008;DHT22;11168;56.976;24.168;2023-06-22T04:00:53;21.20;99.90
22008;DHT22;11168;56.976;24.168;2023-06-22T04:03:20;21.30;99.90
22008;DHT22;11168;56.976;24.168;2023-06-22T04:05:48;21.30;99.90
22008;DHT22;11168;56.976;24.168;2023-06-22T04:08:15;21.20;99.90
22008;DHT22;11168;56.976;24.168;2023-06-22T04:10:43;21.20;99.90
22008;DHT22;11168;56.976;24.168;2023-06-22T04:13:10;21.20;99.90
22008;DHT22;11168;56.976;24.168;2023-06-22T04:15:37;21.30;99.90
22008;DHT22;11168;56.976;24.168;2023-06-22T04:18:04;21.30;99.90
22008;DHT22;11168;56.976;24.168;2023-06-22T04:20:33;21.30;99.90
22008;DHT22;11168;56.976;24.168;2023-06-22T04:23:00;21.30;99.90
22008;DHT22;11168;56.976;24.168;2023-06-22T04:25:27;21.40;99.90
22008;DHT22;11168;56.976;24.168;2023-06-22T04:27:54;21.40;99.90
22008;DHT22;11168;56.976;24.168;2023-06-22T04:30:21;21.50;99.90
22008;DHT22;11168;56.976;24.168;2023-06-22T04:32:48;21.60;99.90
22008;DHT22;11168;56.976;24.168;2023-06-22T04:35:25;21.60;99.90
22008;DHT22;11168;56.976;24.168;2023-06-22T04:37:53;21.70;99.90
22008;DHT22;11168;56.976;24.168;2023-06-22T04:40:25;21.70;99.90
22008;DHT22;11168;56.976;24.168;2023-06-22T04:42:53;21.70;99.90
22008;DHT22;11168;56.976;24.168;2023-06-22T04:45:20;21.80;99.90
22008;DHT22;11168;56.976;24.168;2023-06-22T04:47:48;21.80;99.90
22008;DHT22;11168;56.976;24.168;2023-06-22T04:50:16;21.90;99.90
22008;DHT22;11168;56.976;24.168;2023-06-22T04:52:44;21.90;99.90
22008;DHT22;11168;56.976;24.168;2023-06-22T04:55:12;21.90;99.90
22008;DHT22;11168;56.976;24.168;2023-06-22T04:57:41;21.70;99.90
22008;DHT22;11168;56.976;24.168;2023-06-22T05:00:12;21.60;99.90
22008;DHT22;11168;56.976;24.168;2023-06-22T05:02:40;21.50;99.90
22008;DHT22;11168;56.976;24.168;2023-06-22T05:05:08;21.40;99.90
22008;DHT22;11168;56.976;24.168;2023-06-22T05:07:36;21.40;99.90
22008;DHT22;11168;56.976;24.168;2023-06-22T05:10:03;21.30;99.90
22008;DHT22;11168;56.976;24.168;2023-06-22T05:12:31;21.10;99.90
22008;DHT22;11168;56.976;24.168;2023-06-22T05:14:58;21.00;99.90
22008;DHT22;11168;56.976;24.168;2023-06-22T05:17:25;20.80;99.90
22008;DHT22;11168;56.976;24.168;2023-06-22T05:19:52;20.80;99.90
22008;DHT22;11168;56.976;24.168;2023-06-22T05:22:19;20.70;99.90
22008;DHT22;11168;56.976;24.168;2023-06-22T05:24:47;20.70;99.90
22008;DHT22;11168;56.976;24.168;2023-06-22T05:27:14;20.60;99.90
22008;DHT22;11168;56.976;24.168;2023-06-22T05:29:41;20.60;99.90
22008;DHT22;11168;56.976;24.168;2023-06-22T05:32:09;20.50;99.90
22008;DHT22;11168;56.976;24.168;2023-06-22T05:34:36;20.60;99.90
22008;DHT22;11168;56.976;24.168;2023-06-22T05:37:04;20.50;99.90
22008;DHT22;11168;56.976;24.168;2023-06-22T05:39:31;20.40;99.90
22008;DHT22;11168;56.976;24.168;2023-06-22T05:41:58;20.30;99.90
22008;DHT22;11168;56.976;24.168;2023-06-22T05:44:25;20.20;99.90
22008;DHT22;11168;56.976;24.168;2023-06-22T05:46:52;20.10;99.90
22008;DHT22;11168;56.976;24.168;2023-06-22T05:49:19;20.00;99.90
22008;DHT22;11168;56.976;24.168;2023-06-22T05:51:48;19.90;99.90
22008;DHT22;11168;56.976;24.168;2023-06-22T05:54:15;19.90;99.90
22008;DHT22;11168;56.976;24.168;2023-06-22T05:56:44;19.80;99.90
22008;DHT22;11168;56.976;24.168;2023-06-22T05:59:11;19.60;99.90
22008;DHT22;11168;56.976;24.168;2023-06-22T06:01:39;19.50;99.90
22008;DHT22;11168;56.976;24.168;2023-06-22T06:04:07;19.50;99.90
22008;DHT22;11168;56.976;24.168;2023-06-22T06:06:35;19.50;99.90
22008;DHT22;11168;56.976;24.168;2023-06-22T06:09:04;19.40;99.90
22008;DHT22;11168;56.976;24.168;2023-06-22T06:11:31;19.30;99.90
22008;DHT22;11168;56.976;24.168;2023-06-22T06:13:59;19.20;99.90
22008;DHT22;11168;56.976;24.168;2023-06-22T06:16:26;19.20;99.90
22008;DHT22;11168;56.976;24.168;2023-06-22T06:18:52;19.20;99.90
22008;DHT22;11168;56.976;24.168;2023-06-22T06:21:22;19.20;99.90
22008;DHT22;11168;56.976;24.168;2023-06-22T06:23:49;19.20;99.90
22008;DHT22;11168;56.976;24.168;2023-06-22T06:26:16;19.20;99.90
22008;DHT22;11168;56.976;24.168;2023-06-22T06:28:44;19.20;99.90
22008;DHT22;11168;56.976;24.168;2023-06-22T06:31:11;19.00;99.90
22008;DHT22;11168;56.976;24.168;2023-06-22T06:33:39;19.10;99.90
22008;DHT22;11168;56.976;24.168;2023-06-22T06:36:06;19.00;99.90
22008;DHT22;11168;56.976;24.168;2023-06-22T06:38:35;18.90;99.90
22008;DHT22;11168;56.976;24.168;2023-06-22T06:41:02;18.90;99.90
22008;DHT22;11168;56.976;24.168;2023-06-22T06:43:29;18.80;99.90
22008;DHT22;11168;56.976;24.168;2023-06-22T06:45:56;18.80;99.90
22008;DHT22;11168;56.976;24.168;2023-06-22T06:48:23;18.80;99.90
22008;DHT22;11168;56.976;24.168;2023-06-22T06:50:50;18.80;99.90
22008;DHT22;11168;56.976;24.168;2023-06-22T06:53:17;18.80;99.90
22008;DHT22;11168;56.976;24.168;2023-06-22T06:55:44;18.80;99.90
22008;DHT22;11168;56.976;24.168;2023-06-22T06:58:12;18.80;99.90
22008;DHT22;11168;56.976;24.168;2023-06-22T07:00:40;18.80;99.90
22008;DHT22;11168;56.976;24.168;2023-06-22T07:03:08;18.80;99.90
22008;DHT22;11168;56.976;24.168;2023-06-22T07:05:36;18.80;99.90
22008;DHT22;11168;56.976;24.168;2023-06-22T07:08:03;18.70;99.90
22008;DHT22;11168;56.976;24.168;2023-06-22T07:10:30;18.60;99.90
22008;DHT22;11168;56.976;24.168;2023-06-22T07:12:58;18.60;99.90
22008;DHT22;11168;56.976;24.168;2023-06-22T07:15:25;18.80;99.90
22008;DHT22;11168;56.976;24.168;2023-06-22T07:17:52;18.70;99.90
22008;DHT22;11168;56.976;24.168;2023-06-22T07:20:19;18.70;99.90
22008;DHT22;11168;56.976;24.168;2023-06-22T07:22:46;18.70;99.90
22008;DHT22;11168;56.976;24.168;2023-06-22T07:25:14;18.80;99.90
22008;DHT22;11168;56.976;24.168;2023-06-22T07:27:47;18.80;99.90
22008;DHT22;11168;56.976;24.168;2023-06-22T07:30:23;18.90;99.90
22008;DHT22;11168;56.976;24.168;2023-06-22T07:32:50;18.70;99.90
22008;DHT22;11168;56.976;24.168;2023-06-22T07:35:17;18.80;99.90
22008;DHT22;11168;56.976;24.168;2023-06-22T07:37:44;19.00;99.90
22008;DHT22;11168;56.976;24.168;2023-06-22T07:40:12;19.10;99.90
22008;DHT22;11168;56.976;24.168;2023-06-22T07:42:39;18.80;99.90
22008;DHT22;11168;56.976;24.168;2023-06-22T07:45:06;19.10;99.90
22008;DHT22;11168;56.976;24.168;2023-06-22T07:47:35;19.30;99.90
22008;DHT22;11168;56.976;24.168;2023-06-22T07:50:03;19.60;99.90
22008;DHT22;11168;56.976;24.168;2023-06-22T07:52:31;19.90;99.90
22008;DHT22;11168;56.976;24.168;2023-06-22T07:54:58;20.20;99.90
22008;DHT22;11168;56.976;24.168;2023-06-22T07:57:25;20.20;99.90
22008;DHT22;11168;56.976;24.168;2023-06-22T08:00:01;20.20;99.90
22008;DHT22;11168;56.976;24.168;2023-06-22T08:02:31;20.20;99.90
22008;DHT22;11168;56.976;24.168;2023-06-22T08:04:58;20.10;99.90
22008;DHT22;11168;56.976;24.168;2023-06-22T08:07:41;20.10;99.90
22008;DHT22;11168;56.976;24.168;2023-06-22T08:10:13;20.30;99.90
22008;DHT22;11168;56.976;24.168;2023-06-22T08:12:41;20.30;99.90
22008;DHT22;11168;56.976;24.168;2023-06-22T08:15:08;20.40;99.90
22008;DHT22;11168;56.976;24.168;2023-06-22T08:17:39;20.50;99.90
22008;DHT22;11168;56.976;24.168;2023-06-22T08:20:08;20.60;99.90
22008;DHT22;11168;56.976;24.168;2023-06-22T08:22:42;20.80;99.90
22008;DHT22;11168;56.976;24.168;2023-06-22T08:25:10;20.90;99.90
22008;DHT22;11168;56.976;24.168;2023-06-22T08:27:37;20.90;99.90
22008;DHT22;11168;56.976;24.168;2023-06-22T08:30:06;20.80;99.90
22008;DHT22;11168;56.976;24.168;2023-06-22T08:32:33;20.80;99.90
22008;DHT22;11168;56.976;24.168;2023-06-22T08:35:00;20.80;99.90
22008;DHT22;11168;56.976;24.168;2023-06-22T08:37:28;20.80;99.90
22008;DHT22;11168;56.976;24.168;2023-06-22T08:40:07;20.80;99.90
22008;DHT22;11168;56.976;24.168;2023-06-22T08:42:36;21.00;99.90
22008;DHT22;11168;56.976;24.168;2023-06-22T08:45:03;21.00;99.90
22008;DHT22;11168;56.976;24.168;2023-06-22T08:47:30;21.10;99.90
22008;DHT22;11168;56.976;24.168;2023-06-22T08:49:57;21.20;99.90
22008;DHT22;11168;56.976;24.168;2023-06-22T08:52:25;21.30;99.90
22008;DHT22;11168;56.976;24.168;2023-06-22T08:54:52;21.20;99.90
22008;DHT22;11168;56.976;24.168;2023-06-22T08:57:21;21.30;99.90
22008;DHT22;11168;56.976;24.168;2023-06-22T08:59:48;21.30;99.90
22008;DHT22;11168;56.976;24.168;2023-06-22T09:02:15;21.30;99.90
22008;DHT22;11168;56.976;24.168;2023-06-22T09:04:43;21.40;99.90
22008;DHT22;11168;56.976;24.168;2023-06-22T09:07:10;21.30;99.90
22008;DHT22;11168;56.976;24.168;2023-06-22T09:09:38;21.40;99.90
22008;DHT22;11168;56.976;24.168;2023-06-22T09:12:06;21.50;99.90
22008;DHT22;11168;56.976;24.168;2023-06-22T09:14:33;21.50;99.90
22008;DHT22;11168;56.976;24.168;2023-06-22T09:17:00;21.80;99.90
22008;DHT22;11168;56.976;24.168;2023-06-22T09:19:27;22.00;99.90
22008;DHT22;11168;56.976;24.168;2023-06-22T09:21:54;22.20;99.90
22008;DHT22;11168;56.976;24.168;2023-06-22T09:24:21;22.20;99.90
22008;DHT22;11168;56.976;24.168;2023-06-22T09:26:48;22.10;99.90
22008;DHT22;11168;56.976;24.168;2023-06-22T09:29:15;22.10;99.90
22008;DHT22;11168;56.976;24.168;2023-06-22T09:31:42;22.20;99.90
22008;DHT22;11168;56.976;24.168;2023-06-22T09:34:09;22.30;99.90
22008;DHT22;11168;56.976;24.168;2023-06-22T09:36:36;22.30;99.90
22008;DHT22;11168;56.976;24.168;2023-06-22T09:39:03;22.30;99.90
22008;DHT22;11168;56.976;24.168;2023-06-22T09:41:33;22.20;99.90
22008;DHT22;11168;56.976;24.168;2023-06-22T09:44:00;22.20;99.90
22008;DHT22;11168;56.976;24.168;2023-06-22T09:46:27;22.30;99.90
22008;DHT22;11168;56.976;24.168;2023-06-22T09:48:54;22.30;99.90
22008;DHT22;11168;56.976;24.168;2023-06-22T12:44:03;24.20;99.90
22008;DHT22;11168;56.976;24.168;2023-06-22T12:46:30;24.30;99.90
22008;DHT22;11168;56.976;24.168;2023-06-22T12:49:04;24.30;99.90
22008;DHT22;11168;56.976;24.168;2023-06-22T12:51:31;24.30;99.90
22008;DHT22;11168;56.976;24.168;2023-06-22T12:53:58;24.60;99.90
22008;DHT22;11168;56.976;24.168;2023-06-22T12:56:26;24.20;99.90
22008;DHT22;11168;56.976;24.168;2023-06-22T12:58:53;24.30;99.90
22008;DHT22;11168;56.976;24.168;2023-06-22T13:01:19;24.10;99.90
22008;DHT22;11168;56.976;24.168;2023-06-22T13:03:47;24.30;99.90
22008;DHT22;11168;56.976;24.168;2023-06-22T13:06:14;24.30;99.90
22008;DHT22;11168;56.976;24.168;2023-06-22T13:08:41;24.20;99.90
22008;DHT22;11168;56.976;24.168;2023-06-22T13:11:11;24.10;99.90
22008;DHT22;11168;56.976;24.168;2023-06-22T13:13:39;24.00;99.90
22008;DHT22;11168;56.976;24.168;2023-06-22T13:16:06;23.90;99.90
22008;DHT22;11168;56.976;24.168;2023-06-22T13:18:33;23.80;99.90
22008;DHT22;11168;56.976;24.168;2023-06-22T13:21:03;23.70;99.90
22008;DHT22;11168;56.976;24.168;2023-06-22T13:23:30;23.80;99.90
22008;DHT22;11168;56.976;24.168;2023-06-22T13:25:58;23.80;99.90
22008;DHT22;11168;56.976;24.168;2023-06-22T13:28:25;24.10;99.90
22008;DHT22;11168;56.976;24.168;2023-06-22T13:30:54;24.20;99.90
22008;DHT22;11168;56.976;24.168;2023-06-22T13:33:21;24.60;99.90
22008;DHT22;11168;56.976;24.168;2023-06-22T13:35:48;25.00;99.90
22008;DHT22;11168;56.976;24.168;2023-06-22T13:38:16;25.30;99.90
22008;DHT22;11168;56.976;24.168;2023-06-22T13:40:44;25.00;99.90
22008;DHT22;11168;56.976;24.168;2023-06-22T13:43:11;24.80;99.90
22008;DHT22;11168;56.976;24.168;2023-06-22T13:45:38;24.60;99.90
22008;DHT22;11168;56.976;24.168;2023-06-22T13:48:14;24.80;99.90
22008;DHT22;11168;56.976;24.168;2023-06-22T13:50:54;25.00;99.90
22008;DHT22;11168;56.976;24.168;2023-06-22T13:53:33;25.20;99.90
22008;DHT22;11168;56.976;24.168;2023-06-22T13:56:27;25.10;99.90
22008;DHT22;11168;56.976;24.168;2023-06-22T13:59:23;25.00;99.90
22008;DHT22;11168;56.976;24.168;2023-06-22T14:01:56;24.80;99.90
22008;DHT22;11168;56.976;24.168;2023-06-22T14:04:38;25.00;99.90
22008;DHT22;11168;56.976;24.168;2023-06-22T14:07:24;24.90;99.90
22008;DHT22;11168;56.976;24.168;2023-06-22T14:09:52;24.80;99.90
22008;DHT22;11168;56.976;24.168;2023-06-22T14:12:22;24.60;99.90
22008;DHT22;11168;56.976;24.168;2023-06-22T14:14:56;24.50;99.90
22008;DHT22;11168;56.976;24.168;2023-06-22T14:17:36;24.30;99.90
22008;DHT22;11168;56.976;24.168;2023-06-22T14:20:09;24.10;99.90
22008;DHT22;11168;56.976;24.168;2023-06-22T14:22:44;24.10;99.90
22008;DHT22;11168;56.976;24.168;2023-06-22T14:25:14;23.90;99.90
22008;DHT22;11168;56.976;24.168;2023-06-22T14:27:41;23.70;99.90
22008;DHT22;11168;56.976;24.168;2023-06-22T14:30:08;23.60;99.90
22008;DHT22;11168;56.976;24.168;2023-06-22T14:32:35;23.60;99.90
22008;DHT22;11168;56.976;24.168;2023-06-22T14:35:02;23.50;99.90
22008;DHT22;11168;56.976;24.168;2023-06-22T14:37:29;23.40;99.90
22008;DHT22;11168;56.976;24.168;2023-06-22T14:39:56;23.30;99.90
22008;DHT22;11168;56.976;24.168;2023-06-22T14:42:23;23.30;99.90
22008;DHT22;11168;56.976;24.168;2023-06-22T14:44:53;23.30;99.90
22008;DHT22;11168;56.976;24.168;2023-06-22T14:47:20;23.40;99.90
22008;DHT22;11168;56.976;24.168;2023-06-22T14:49:48;23.40;99.90
22008;DHT22;11168;56.976;24.168;2023-06-22T14:52:15;23.40;99.90
22008;DHT22;11168;56.976;24.168;2023-06-22T14:54:42;23.30;99.90
22008;DHT22;11168;56.976;24.168;2023-06-22T14:57:09;23.30;99.90
22008;DHT22;11168;56.976;24.168;2023-06-22T14:59:36;23.20;99.90
22008;DHT22;11168;56.976;24.168;2023-06-22T15:02:05;23.30;99.90
22008;DHT22;11168;56.976;24.168;2023-06-22T15:04:32;23.40;99.90
22008;DHT22;11168;56.976;24.168;2023-06-22T15:07:01;23.40;99.90
22008;DHT22;11168;56.976;24.168;2023-06-22T15:09:28;23.30;99.90
22008;DHT22;11168;56.976;24.168;2023-06-22T15:11:55;23.30;99.90
22008;DHT22;11168;56.976;24.168;2023-06-22T15:14:23;23.40;99.90
22008;DHT22;11168;56.976;24.168;2023-06-22T15:16:50;23.30;99.90
22008;DHT22;11168;56.976;24.168;2023-06-22T15:19:17;23.20;99.90
22008;DHT22;11168;56.976;24.168;2023-06-22T15:21:44;23.10;99.90
22008;DHT22;11168;56.976;24.168;2023-06-22T15:24:11;23.00;99.90
22008;DHT22;11168;56.976;24.168;2023-06-22T15:26:38;22.90;99.90
22008;DHT22;11168;56.976;24.168;2023-06-22T15:29:05;22.80;99.90
22008;DHT22;11168;56.976;24.168;2023-06-22T15:31:32;22.80;99.90
22008;DHT22;11168;56.976;24.168;2023-06-22T15:33:59;22.80;99.90
22008;DHT22;11168;56.976;24.168;2023-06-22T15:36:26;22.70;99.90
22008;DHT22;11168;56.976;24.168;2023-06-22T15:38:53;22.70;99.90
22008;DHT22;11168;56.976;24.168;2023-06-22T15:41:20;22.70;99.90
22008;DHT22;11168;56.976;24.168;2023-06-22T15:43:47;22.80;99.90
22008;DHT22;11168;56.976;24.168;2023-06-22T15:46:14;22.80;99.90
22008;DHT22;11168;56.976;24.168;2023-06-22T15:48:44;22.70;99.90
22008;DHT22;11168;56.976;24.168;2023-06-22T15:51:14;22.70;99.90
22008;DHT22;11168;56.976;24.168;2023-06-22T15:53:41;22.80;99.90
22008;DHT22;11168;56.976;24.168;2023-06-22T15:56:08;22.90;99.90
22008;DHT22;11168;56.976;24.168;2023-06-22T15:58:36;22.80;99.90
22008;DHT22;11168;56.976;24.168;2023-06-22T16:01:04;22.70;99.90
22008;DHT22;11168;56.976;24.168;2023-06-22T16:03:32;22.80;99.90
22008;DHT22;11168;56.976;24.168;2023-06-22T16:05:59;22.60;99.90
22008;DHT22;11168;56.976;24.168;2023-06-22T16:08:26;22.50;99.90
22008;DHT22;11168;56.976;24.168;2023-06-22T16:10:57;22.50;99.90
22008;DHT22;11168;56.976;24.168;2023-06-22T16:13:24;22.50;99.90
22008;DHT22;11168;56.976;24.168;2023-06-22T16:15:51;22.40;99.90
22008;DHT22;11168;56.976;24.168;2023-06-22T16:18:18;22.20;99.90
22008;DHT22;11168;56.976;24.168;2023-06-22T16:20:45;22.30;99.90
22008;DHT22;11168;56.976;24.168;2023-06-22T16:23:13;22.20;99.90
22008;DHT22;11168;56.976;24.168;2023-06-22T16:25:40;22.30;99.90
22008;DHT22;11168;56.976;24.168;2023-06-22T16:28:07;22.40;99.90
22008;DHT22;11168;56.976;24.168;2023-06-22T16:30:34;22.40;99.90
22008;DHT22;11168;56.976;24.168;2023-06-22T16:33:01;22.30;99.90
22008;DHT22;11168;56.976;24.168;2023-06-22T16:35:29;22.10;99.90
22008;DHT22;11168;56.976;24.168;2023-06-22T16:37:59;22.10;99.90
22008;DHT22;11168;56.976;24.168;2023-06-22T16:40:26;22.10;99.90
22008;DHT22;11168;56.976;24.168;2023-06-22T16:42:54;22.00;99.90
22008;DHT22;11168;56.976;24.168;2023-06-22T16:45:21;21.90;99.90
22008;DHT22;11168;56.976;24.168;2023-06-22T16:47:50;21.80;99.90
22008;DHT22;11168;56.976;24.168;2023-06-22T16:50:18;21.80;99.90
22008;DHT22;11168;56.976;24.168;2023-06-22T16:52:45;21.70;99.90
22008;DHT22;11168;56.976;24.168;2023-06-22T16:55:15;21.70;99.90
22008;DHT22;11168;56.976;24.168;2023-06-22T16:57:43;21.70;99.90
22008;DHT22;11168;56.976;24.168;2023-06-22T17:00:10;21.60;99.90
22008;DHT22;11168;56.976;24.168;2023-06-22T17:02:44;21.60;99.90
22008;DHT22;11168;56.976;24.168;2023-06-22T17:05:14;21.50;99.90
22008;DHT22;11168;56.976;24.168;2023-06-22T17:07:45;21.50;99.90
22008;DHT22;11168;56.976;24.168;2023-06-22T17:10:15;21.40;99.90
22008;DHT22;11168;56.976;24.168;2023-06-22T17:12:42;21.30;99.90
22008;DHT22;11168;56.976;24.168;2023-06-22T17:15:10;21.30;99.90
22008;DHT22;11168;56.976;24.168;2023-06-22T17:17:39;21.20;99.90
22008;DHT22;11168;56.976;24.168;2023-06-22T17:20:07;21.20;99.90
22008;DHT22;11168;56.976;24.168;2023-06-22T17:22:34;21.10;99.90
22008;DHT22;11168;56.976;24.168;2023-06-22T17:25:14;21.00;99.90
22008;DHT22;11168;56.976;24.168;2023-06-22T17:27:41;20.90;99.90
22008;DHT22;11168;56.976;24.168;2023-06-22T17:30:10;21.00;99.90
22008;DHT22;11168;56.976;24.168;2023-06-22T17:32:39;20.90;99.90
22008;DHT22;11168;56.976;24.168;2023-06-22T17:35:10;20.90;99.90
22008;DHT22;11168;56.976;24.168;2023-06-22T17:37:56;20.90;99.90
22008;DHT22;11168;56.976;24.168;2023-06-22T17:40:25;20.80;99.90
22008;DHT22;11168;56.976;24.168;2023-06-22T17:43:04;20.80;99.90
22008;DHT22;11168;56.976;24.168;2023-06-22T17:45:40;20.80;99.90
22008;DHT22;11168;56.976;24.168;2023-06-22T17:48:09;20.80;99.90
22008;DHT22;11168;56.976;24.168;2023-06-22T17:50:40;20.80;99.90
22008;DHT22;11168;56.976;24.168;2023-06-22T17:53:12;20.80;99.90
22008;DHT22;11168;56.976;24.168;2023-06-22T17:55:39;20.80;99.90
22008;DHT22;11168;56.976;24.168;2023-06-22T17:58:07;20.80;99.90
22008;DHT22;11168;56.976;24.168;2023-06-22T18:00:35;20.80;99.90
22008;DHT22;11168;56.976;24.168;2023-06-22T18:03:03;20.70;99.90
22008;DHT22;11168;56.976;24.168;2023-06-22T18:05:32;20.70;99.90
22008;DHT22;11168;56.976;24.168;2023-06-22T18:08:02;20.70;99.90
22008;DHT22;11168;56.976;24.168;2023-06-22T18:10:32;20.70;99.90
22008;DHT22;11168;56.976;24.168;2023-06-22T18:13:00;20.60;99.90
22008;DHT22;11168;56.976;24.168;2023-06-22T18:15:27;20.60;99.90
22008;DHT22;11168;56.976;24.168;2023-06-22T18:17:55;20.60;99.90
22008;DHT22;11168;56.976;24.168;2023-06-22T18:20:24;20.60;99.90
22008;DHT22;11168;56.976;24.168;2023-06-22T18:22:53;20.50;99.90
22008;DHT22;11168;56.976;24.168;2023-06-22T18:25:20;20.50;99.90
22008;DHT22;11168;56.976;24.168;2023-06-22T18:27:48;20.50;99.90